sensor_id;sensor_type;location;lat;lon;timestamp;P1;durP1;ratioP1;P2;durP2;ratioP2
26516;SDS011;14190;51.342;6.338;2023-04-03T00:01:54;15.20;;;9.23;;
26516;SDS011;14190;51.342;6.338;2023-04-03T00:04:21;12.20;;;8.10;;
26516;SDS011;14190;51.342;6.338;2023-04-03T00:06:49;12.18;;;8.90;;
26516;SDS011;14190;51.342;6.338;2023-04-03T00:09:16;14.58;;;8.93;;
26516;SDS011;14190;51.342;6.338;2023-04-03T00:11:43;15.48;;;10.18;;
26516;SDS011;14190;51.342;6.338;2023-04-03T00:14:11;16.50;;;9.85;;
26516;SDS011;14190;51.342;6.338;2023-04-03T00:16:38;15.60;;;9.28;;
26516;SDS011;14190;51.342;6.338;2023-04-03T00:19:05;19.48;;;8.70;;
26516;SDS011;14190;51.342;6.338;2023-04-03T00:21:33;18.92;;;9.60;;
26516;SDS011;14190;51.342;6.338;2023-04-03T00:24:01;15.43;;;9.45;;
26516;SDS011;14190;51.342;6.338;2023-04-03T00:26:28;15.90;;;9.65;;
26516;SDS011;14190;51.342;6.338;2023-04-03T00:28:55;15.72;;;8.73;;
26516;SDS011;14190;51.342;6.338;2023-04-03T00:31:23;11.30;;;8.58;;
26516;SDS011;14190;51.342;6.338;2023-04-03T00:33:50;13.38;;;9.45;;
26516;SDS011;14190;51.342;6.338;2023-04-03T00:36:17;16.57;;;9.15;;
26516;SDS011;14190;51.342;6.338;2023-04-03T00:38:45;17.37;;;9.63;;
26516;SDS011;14190;51.342;6.338;2023-04-03T00:41:12;13.88;;;9.48;;
26516;SDS011;14190;51.342;6.338;2023-04-03T00:43:40;15.83;;;9.68;;
26516;SDS011;14190;51.342;6.338;2023-04-03T00:46:07;16.75;;;9.00;;
26516;SDS011;14190;51.342;6.338;2023-04-03T00:48:45;15.08;;;9.13;;
26516;SDS011;14190;51.342;6.338;2023-04-03T00:51:05;11.28;;;8.88;;
26516;SDS011;14190;51.342;6.338;2023-04-03T00:53:33;12.47;;;8.03;;
26516;SDS011;14190;51.342;6.338;2023-04-03T00:56:04;16.23;;;9.35;;
26516;SDS011;14190;51.342;6.338;2023-04-03T00:58:37;12.58;;;9.05;;
26516;SDS011;14190;51.342;6.338;2023-04-03T01:01:03;17.95;;;8.85;;
26516;SDS011;14190;51.342;6.338;2023-04-03T01:03:30;15.48;;;9.20;;
26516;SDS011;14190;51.342;6.338;2023-04-03T01:05:58;16.35;;;9.53;;
26516;SDS011;14190;51.342;6.338;2023-04-03T01:08:26;17.02;;;9.58;;
26516;SDS011;14190;51.342;6.338;2023-04-03T01:10:54;13.93;;;8.58;;
26516;SDS011;14190;51.342;6.338;2023-04-03T01:13:23;13.58;;;9.10;;
26516;SDS011;14190;51.342;6.338;2023-04-03T01:15:51;15.30;;;9.60;;
26516;SDS011;14190;51.342;6.338;2023-04-03T01:18:18;14.87;;;9.55;;
26516;SDS011;14190;51.342;6.338;2023-04-03T01:20:55;12.55;;;8.80;;
26516;SDS011;14190;51.342;6.338;2023-04-03T01:25:46;11.60;;;7.78;;
26516;SDS011;14190;51.342;6.338;2023-04-03T01:28:20;13.32;;;9.38;;
26516;SDS011;14190;51.342;6.338;2023-04-03T01:31:20;9.93;;;7.47;;
26516;SDS011;14190;51.342;6.338;2023-04-03T01:33:18;11.70;;;8.93;;
26516;SDS011;14190;51.342;6.338;2023-04-03T01:35:46;13.70;;;8.43;;
26516;SDS011;14190;51.342;6.338;2023-04-03T01:38:13;12.13;;;9.05;;
26516;SDS011;14190;51.342;6.338;2023-04-03T01:40:41;13.60;;;9.68;;
26516;SDS011;14190;51.342;6.338;2023-04-03T01:43:09;12.45;;;9.43;;
26516;SDS011;14190;51.342;6.338;2023-04-03T01:45:36;15.18;;;9.40;;
26516;SDS011;14190;51.342;6.338;2023-04-03T01:48:04;19.73;;;11.38;;
26516;SDS011;14190;51.342;6.338;2023-04-03T01:50:31;12.40;;;9.05;;
26516;SDS011;14190;51.342;6.338;2023-04-03T01:52:58;14.63;;;9.45;;
26516;SDS011;14190;51.342;6.338;2023-04-03T01:55:26;15.35;;;9.95;;
26516;SDS011;14190;51.342;6.338;2023-04-03T01:57:54;14.85;;;10.05;;
26516;SDS011;14190;51.342;6.338;2023-04-03T02:00:21;13.05;;;9.15;;
26516;SDS011;14190;51.342;6.338;2023-04-03T02:02:49;19.07;;;9.88;;
26516;SDS011;14190;51.342;6.338;2023-04-03T02:05:17;13.83;;;9.05;;
26516;SDS011;14190;51.342;6.338;2023-04-03T02:07:44;15.78;;;9.33;;
26516;SDS011;14190;51.342;6.338;2023-04-03T02:10:12;15.58;;;9.40;;
26516;SDS011;14190;51.342;6.338;2023-04-03T02:12:39;11.63;;;7.97;;
26516;SDS011;14190;51.342;6.338;2023-04-03T02:15:07;14.47;;;8.98;;
26516;SDS011;14190;51.342;6.338;2023-04-03T02:17:35;15.03;;;10.03;;
26516;SDS011;14190;51.342;6.338;2023-04-03T02:20:03;15.55;;;10.15;;
26516;SDS011;14190;51.342;6.338;2023-04-03T02:22:32;17.87;;;10.95;;
26516;SDS011;14190;51.342;6.338;2023-04-03T02:24:59;16.25;;;9.88;;
26516;SDS011;14190;51.342;6.338;2023-04-03T02:27:27;16.20;;;10.60;;
26516;SDS011;14190;51.342;6.338;2023-04-03T02:29:54;18.57;;;10.60;;
26516;SDS011;14190;51.342;6.338;2023-04-03T02:32:21;14.90;;;9.95;;
26516;SDS011;14190;51.342;6.338;2023-04-03T02:34:49;13.05;;;9.10;;
26516;SDS011;14190;51.342;6.338;2023-04-03T02:37:17;20.08;;;10.43;;
26516;SDS011;14190;51.342;6.338;2023-04-03T02:39:45;12.65;;;9.00;;
26516;SDS011;14190;51.342;6.338;2023-04-03T02:42:12;16.37;;;9.13;;
26516;SDS011;14190;51.342;6.338;2023-04-03T02:44:39;16.87;;;9.23;;
26516;SDS011;14190;51.342;6.338;2023-04-03T02:47:08;13.20;;;8.25;;
26516;SDS011;14190;51.342;6.338;2023-04-03T02:49:36;12.20;;;7.87;;
26516;SDS011;14190;51.342;6.338;2023-04-03T02:52:03;18.73;;;7.53;;
26516;SDS011;14190;51.342;6.338;2023-04-03T02:54:31;16.42;;;7.62;;
26516;SDS011;14190;51.342;6.338;2023-04-03T02:57:00;13.78;;;8.73;;
26516;SDS011;14190;51.342;6.338;2023-04-03T02:59:27;15.60;;;8.28;;
26516;SDS011;14190;51.342;6.338;2023-04-03T03:01:55;14.15;;;8.30;;
26516;SDS011;14190;51.342;6.338;2023-04-03T03:04:22;15.23;;;9.18;;
26516;SDS011;14190;51.342;6.338;2023-04-03T03:06:50;16.12;;;8.25;;
26516;SDS011;14190;51.342;6.338;2023-04-03T03:09:18;14.45;;;8.05;;
26516;SDS011;14190;51.342;6.338;2023-04-03T03:11:46;14.60;;;8.88;;
26516;SDS011;14190;51.342;6.338;2023-04-03T03:14:13;19.95;;;7.97;;
26516;SDS011;14190;51.342;6.338;2023-04-03T03:16:40;26.35;;;8.65;;
26516;SDS011;14190;51.342;6.338;2023-04-03T03:19:08;11.22;;;7.28;;
26516;SDS011;14190;51.342;6.338;2023-04-03T03:21:35;10.95;;;6.40;;
26516;SDS011;14190;51.342;6.338;2023-04-03T03:24:03;22.98;;;7.30;;
26516;SDS011;14190;51.342;6.338;2023-04-03T03:26:32;12.23;;;6.10;;
26516;SDS011;14190;51.342;6.338;2023-04-03T03:29:01;10.68;;;6.62;;
26516;SDS011;14190;51.342;6.338;2023-04-03T03:31:29;9.55;;;5.95;;
26516;SDS011;14190;51.342;6.338;2023-04-03T03:33:56;16.48;;;6.80;;
26516;SDS011;14190;51.342;6.338;2023-04-03T03:36:24;16.80;;;6.42;;
26516;SDS011;14190;51.342;6.338;2023-04-03T03:38:51;13.43;;;6.65;;
26516;SDS011;14190;51.342;6.338;2023-04-03T03:41:19;13.83;;;6.67;;
26516;SDS011;14190;51.342;6.338;2023-04-03T03:43:47;14.80;;;6.17;;
26516;SDS011;14190;51.342;6.338;2023-04-03T03:46:14;16.48;;;5.55;;
26516;SDS011;14190;51.342;6.338;2023-04-03T03:48:43;16.52;;;6.10;;
26516;SDS011;14190;51.342;6.338;2023-04-03T03:51:10;16.32;;;6.05;;
26516;SDS011;14190;51.342;6.338;2023-04-03T03:53:38;12.10;;;5.72;;
26516;SDS011;14190;51.342;6.338;2023-04-03T03:56:07;11.18;;;5.37;;
26516;SDS011;14190;51.342;6.338;2023-04-03T03:58:35;13.60;;;4.85;;
26516;SDS011;14190;51.342;6.338;2023-04-03T04:01:03;13.38;;;5.55;;
26516;SDS011;14190;51.342;6.338;2023-04-03T04:03:32;14.13;;;6.40;;
26516;SDS011;14190;51.342;6.338;2023-04-03T04:06:00;11.40;;;5.55;;
26516;SDS011;14190;51.342;6.338;2023-04-03T04:08:28;14.25;;;4.35;;
